sensor_id;sensor_type;location;lat;lon;timestamp;P1;durP1;ratioP1;P2;durP2;ratioP2
26690;SDS011;14307;51.718;8.938;2022-08-21T00:00:43;19.20;;;17.60;;
26690;SDS011;14307;51.718;8.938;2022-08-21T00:03:11;19.65;;;18.05;;
26690;SDS011;14307;51.718;8.938;2022-08-21T00:05:40;19.63;;;17.83;;
26690;SDS011;14307;51.718;8.938;2022-08-21T00:08:10;21.02;;;18.88;;
26690;SDS011;14307;51.718;8.938;2022-08-21T00:10:38;20.30;;;18.40;;
26690;SDS011;14307;51.718;8.938;2022-08-21T00:13:06;21.70;;;19.45;;
26690;SDS011;14307;51.718;8.938;2022-08-21T00:15:34;24.30;;;20.67;;
26690;SDS011;14307;51.718;8.938;2022-08-21T00:18:03;22.92;;;20.33;;
26690;SDS011;14307;51.718;8.938;2022-08-21T00:20:31;24.00;;;21.38;;
26690;SDS011;14307;51.718;8.938;2022-08-21T00:22:59;25.65;;;22.05;;
26690;SDS011;14307;51.718;8.938;2022-08-21T00:25:26;21.75;;;19.58;;
26690;SDS011;14307;51.718;8.938;2022-08-21T00:27:54;19.50;;;17.88;;
26690;SDS011;14307;51.718;8.938;2022-08-21T00:30:22;22.58;;;20.15;;
26690;SDS011;14307;51.718;8.938;2022-08-21T00:32:51;24.08;;;21.50;;
26690;SDS011;14307;51.718;8.938;2022-08-21T00:35:21;25.77;;;23.13;;
26690;SDS011;14307;51.718;8.938;2022-08-21T00:37:50;26.95;;;23.20;;
26690;SDS011;14307;51.718;8.938;2022-08-21T00:40:19;29.17;;;21.65;;
26690;SDS011;14307;51.718;8.938;2022-08-21T00:42:49;29.92;;;23.05;;
26690;SDS011;14307;51.718;8.938;2022-08-21T00:45:19;22.63;;;20.23;;
26690;SDS011;14307;51.718;8.938;2022-08-21T00:47:47;21.77;;;19.40;;
26690;SDS011;14307;51.718;8.938;2022-08-21T00:50:15;25.20;;;19.98;;
26690;SDS011;14307;51.718;8.938;2022-08-21T00:52:47;21.25;;;18.95;;
26690;SDS011;14307;51.718;8.938;2022-08-21T00:55:15;19.10;;;16.98;;
26690;SDS011;14307;51.718;8.938;2022-08-21T00:57:45;17.80;;;16.08;;
26690;SDS011;14307;51.718;8.938;2022-08-21T01:00:17;17.40;;;15.80;;
26690;SDS011;14307;51.718;8.938;2022-08-21T01:02:47;21.20;;;16.48;;
26690;SDS011;14307;51.718;8.938;2022-08-21T01:05:14;17.38;;;15.95;;
26690;SDS011;14307;51.718;8.938;2022-08-21T01:07:42;18.25;;;16.35;;
26690;SDS011;14307;51.718;8.938;2022-08-21T01:10:10;20.40;;;18.20;;
26690;SDS011;14307;51.718;8.938;2022-08-21T01:12:50;20.85;;;18.77;;
26690;SDS011;14307;51.718;8.938;2022-08-21T01:15:19;20.13;;;18.33;;
26690;SDS011;14307;51.718;8.938;2022-08-21T01:17:48;20.40;;;18.52;;
26690;SDS011;14307;51.718;8.938;2022-08-21T01:20:15;22.25;;;20.25;;
26690;SDS011;14307;51.718;8.938;2022-08-21T01:22:42;21.55;;;19.55;;
26690;SDS011;14307;51.718;8.938;2022-08-21T01:25:10;19.33;;;17.65;;
26690;SDS011;14307;51.718;8.938;2022-08-21T01:27:38;19.77;;;17.80;;
26690;SDS011;14307;51.718;8.938;2022-08-21T01:30:18;20.40;;;18.35;;
26690;SDS011;14307;51.718;8.938;2022-08-21T01:32:48;18.70;;;17.13;;
26690;SDS011;14307;51.718;8.938;2022-08-21T01:35:17;21.80;;;19.58;;
26690;SDS011;14307;51.718;8.938;2022-08-21T01:37:46;23.45;;;19.67;;
26690;SDS011;14307;51.718;8.938;2022-08-21T01:40:14;21.45;;;19.20;;
26690;SDS011;14307;51.718;8.938;2022-08-21T01:42:44;22.67;;;20.13;;
26690;SDS011;14307;51.718;8.938;2022-08-21T01:45:12;22.65;;;20.40;;
26690;SDS011;14307;51.718;8.938;2022-08-21T01:47:40;24.35;;;20.77;;
26690;SDS011;14307;51.718;8.938;2022-08-21T01:50:08;28.92;;;21.13;;
26690;SDS011;14307;51.718;8.938;2022-08-21T01:52:38;22.17;;;19.85;;
26690;SDS011;14307;51.718;8.938;2022-08-21T01:55:06;26.77;;;20.38;;
26690;SDS011;14307;51.718;8.938;2022-08-21T01:57:34;26.40;;;21.45;;
26690;SDS011;14307;51.718;8.938;2022-08-21T02:00:03;23.05;;;19.95;;
26690;SDS011;14307;51.718;8.938;2022-08-21T02:02:37;22.00;;;18.65;;
26690;SDS011;14307;51.718;8.938;2022-08-21T02:05:05;22.00;;;19.80;;
26690;SDS011;14307;51.718;8.938;2022-08-21T02:07:39;20.90;;;18.90;;
26690;SDS011;14307;51.718;8.938;2022-08-21T02:10:12;20.40;;;18.27;;
26690;SDS011;14307;51.718;8.938;2022-08-21T02:12:47;21.80;;;19.33;;
26690;SDS011;14307;51.718;8.938;2022-08-21T02:15:14;27.33;;;20.98;;
26690;SDS011;14307;51.718;8.938;2022-08-21T02:17:43;31.95;;;23.05;;
26690;SDS011;14307;51.718;8.938;2022-08-21T02:20:23;36.17;;;25.85;;
26690;SDS011;14307;51.718;8.938;2022-08-21T02:22:53;26.00;;;20.00;;
26690;SDS011;14307;51.718;8.938;2022-08-21T02:25:20;26.75;;;20.63;;
26690;SDS011;14307;51.718;8.938;2022-08-21T02:27:48;20.38;;;18.23;;
26690;SDS011;14307;51.718;8.938;2022-08-21T02:30:37;23.20;;;20.65;;
26690;SDS011;14307;51.718;8.938;2022-08-21T02:33:05;25.17;;;20.42;;
26690;SDS011;14307;51.718;8.938;2022-08-21T02:35:32;24.77;;;20.20;;
26690;SDS011;14307;51.718;8.938;2022-08-21T02:38:00;31.15;;;21.50;;
26690;SDS011;14307;51.718;8.938;2022-08-21T02:40:32;31.65;;;22.20;;
26690;SDS011;14307;51.718;8.938;2022-08-21T02:43:00;24.75;;;21.20;;
26690;SDS011;14307;51.718;8.938;2022-08-21T02:45:29;22.90;;;20.50;;
26690;SDS011;14307;51.718;8.938;2022-08-21T02:47:58;20.63;;;18.42;;
26690;SDS011;14307;51.718;8.938;2022-08-21T02:50:33;19.67;;;17.67;;
26690;SDS011;14307;51.718;8.938;2022-08-21T02:53:05;25.08;;;20.70;;
26690;SDS011;14307;51.718;8.938;2022-08-21T02:55:34;25.42;;;21.00;;
26690;SDS011;14307;51.718;8.938;2022-08-21T02:58:03;26.08;;;22.25;;
26690;SDS011;14307;51.718;8.938;2022-08-21T03:00:33;23.15;;;20.60;;
26690;SDS011;14307;51.718;8.938;2022-08-21T03:03:04;26.85;;;21.75;;
26690;SDS011;14307;51.718;8.938;2022-08-21T03:05:31;25.90;;;22.25;;
26690;SDS011;14307;51.718;8.938;2022-08-21T03:08:01;36.85;;;25.05;;
26690;SDS011;14307;51.718;8.938;2022-08-21T03:10:29;38.83;;;26.63;;
26690;SDS011;14307;51.718;8.938;2022-08-21T03:12:57;50.10;;;27.58;;
26690;SDS011;14307;51.718;8.938;2022-08-21T03:15:24;31.27;;;23.90;;
26690;SDS011;14307;51.718;8.938;2022-08-21T03:17:51;37.15;;;25.52;;
26690;SDS011;14307;51.718;8.938;2022-08-21T03:20:19;29.75;;;22.40;;
26690;SDS011;14307;51.718;8.938;2022-08-21T03:22:50;30.88;;;21.25;;
26690;SDS011;14307;51.718;8.938;2022-08-21T03:25:23;31.38;;;21.88;;
26690;SDS011;14307;51.718;8.938;2022-08-21T03:28:07;36.72;;;23.40;;
26690;SDS011;14307;51.718;8.938;2022-08-21T03:30:43;35.92;;;22.90;;
26690;SDS011;14307;51.718;8.938;2022-08-21T03:33:10;34.00;;;21.33;;
26690;SDS011;14307;51.718;8.938;2022-08-21T03:35:41;38.55;;;25.63;;
26690;SDS011;14307;51.718;8.938;2022-08-21T03:38:09;39.42;;;24.58;;
26690;SDS011;14307;51.718;8.938;2022-08-21T03:40:36;42.42;;;26.85;;
26690;SDS011;14307;51.718;8.938;2022-08-21T03:43:02;39.30;;;26.58;;
26690;SDS011;14307;51.718;8.938;2022-08-21T03:45:29;39.55;;;25.98;;
26690;SDS011;14307;51.718;8.938;2022-08-21T03:47:59;36.95;;;25.08;;
26690;SDS011;14307;51.718;8.938;2022-08-21T03:50:31;37.08;;;25.30;;
26690;SDS011;14307;51.718;8.938;2022-08-21T03:53:07;55.03;;;31.73;;
26690;SDS011;14307;51.718;8.938;2022-08-21T03:55:43;29.35;;;20.95;;
26690;SDS011;14307;51.718;8.938;2022-08-21T03:58:14;32.25;;;22.00;;
26690;SDS011;14307;51.718;8.938;2022-08-21T04:00:46;43.58;;;28.27;;
26690;SDS011;14307;51.718;8.938;2022-08-21T04:03:15;32.92;;;23.20;;
26690;SDS011;14307;51.718;8.938;2022-08-21T04:05:42;29.17;;;20.38;;
26690;SDS011;14307;51.718;8.938;2022-08-21T04:08:11;27.77;;;20.65;;
26690;SDS011;14307;51.718;8.938;2022-08-21T04:10:39;40.72;;;26.48;;
26690;SDS011;14307;51.718;8.938;2022-08-21T04:13:07;36.80;;;21.77;;
26690;SDS011;14307;51.718;8.938;2022-08-21T04:15:34;36.47;;;24.77;;
26690;SDS011;14307;51.718;8.938;2022-08-21T04:18:02;35.40;;;24.17;;
26690;SDS011;14307;51.718;8.938;2022-08-21T04:20:29;38.65;;;24.30;;
26690;SDS011;14307;51.718;8.938;2022-08-21T04:22:56;45.08;;;25.45;;
26690;SDS011;14307;51.718;8.938;2022-08-21T04:25:23;36.83;;;24.75;;
26690;SDS011;14307;51.718;8.938;2022-08-21T04:27:51;36.05;;;21.98;;
26690;SDS011;14307;51.718;8.938;2022-08-21T04:30:19;34.00;;;24.60;;
26690;SDS011;14307;51.718;8.938;2022-08-21T04:32:53;29.70;;;22.27;;
26690;SDS011;14307;51.718;8.938;2022-08-21T04:35:22;35.03;;;24.55;;
26690;SDS011;14307;51.718;8.938;2022-08-21T04:37:50;38.05;;;26.50;;
26690;SDS011;14307;51.718;8.938;2022-08-21T04:40:18;32.92;;;23.67;;
26690;SDS011;14307;51.718;8.938;2022-08-21T04:42:47;34.13;;;23.17;;
26690;SDS011;14307;51.718;8.938;2022-08-21T04:45:24;30.60;;;23.05;;
26690;SDS011;14307;51.718;8.938;2022-08-21T04:48:11;27.98;;;20.02;;
26690;SDS011;14307;51.718;8.938;2022-08-21T04:50:44;26.30;;;19.50;;
26690;SDS011;14307;51.718;8.938;2022-08-21T04:53:22;25.02;;;19.48;;
26690;SDS011;14307;51.718;8.938;2022-08-21T04:55:56;26.50;;;20.58;;
26690;SDS011;14307;51.718;8.938;2022-08-21T04:58:26;30.63;;;23.08;;
26690;SDS011;14307;51.718;8.938;2022-08-21T05:00:55;29.38;;;22.92;;
26690;SDS011;14307;51.718;8.938;2022-08-21T05:03:24;33.03;;;24.17;;
26690;SDS011;14307;51.718;8.938;2022-08-21T05:05:50;28.25;;;22.00;;
26690;SDS011;14307;51.718;8.938;2022-08-21T05:08:19;25.23;;;20.75;;
26690;SDS011;14307;51.718;8.938;2022-08-21T05:10:49;33.10;;;23.92;;
26690;SDS011;14307;51.718;8.938;2022-08-21T05:13:16;32.17;;;22.65;;
26690;SDS011;14307;51.718;8.938;2022-08-21T05:15:43;31.52;;;23.85;;
26690;SDS011;14307;51.718;8.938;2022-08-21T05:18:10;26.45;;;21.25;;
26690;SDS011;14307;51.718;8.938;2022-08-21T05:20:37;26.33;;;19.98;;
26690;SDS011;14307;51.718;8.938;2022-08-21T05:23:11;29.85;;;21.48;;
26690;SDS011;14307;51.718;8.938;2022-08-21T05:25:39;25.00;;;19.50;;
26690;SDS011;14307;51.718;8.938;2022-08-21T05:28:07;24.30;;;21.13;;
26690;SDS011;14307;51.718;8.938;2022-08-21T05:30:34;24.45;;;20.10;;
26690;SDS011;14307;51.718;8.938;2022-08-21T05:33:02;33.30;;;23.95;;
26690;SDS011;14307;51.718;8.938;2022-08-21T05:35:30;28.55;;;21.23;;
26690;SDS011;14307;51.718;8.938;2022-08-21T05:37:58;35.33;;;26.08;;
26690;SDS011;14307;51.718;8.938;2022-08-21T05:40:26;33.70;;;24.95;;
26690;SDS011;14307;51.718;8.938;2022-08-21T05:42:53;22.70;;;20.30;;
26690;SDS011;14307;51.718;8.938;2022-08-21T05:45:22;25.73;;;20.60;;
26690;SDS011;14307;51.718;8.938;2022-08-21T05:50:35;28.08;;;21.55;;
26690;SDS011;14307;51.718;8.938;2022-08-21T05:53:04;24.98;;;22.35;;
26690;SDS011;14307;51.718;8.938;2022-08-21T05:55:32;26.85;;;23.80;;
26690;SDS011;14307;51.718;8.938;2022-08-21T05:57:59;29.02;;;24.98;;
26690;SDS011;14307;51.718;8.938;2022-08-21T06:00:26;33.03;;;25.73;;
26690;SDS011;14307;51.718;8.938;2022-08-21T06:02:53;31.52;;;25.20;;
26690;SDS011;14307;51.718;8.938;2022-08-21T06:05:20;37.28;;;24.98;;
26690;SDS011;14307;51.718;8.938;2022-08-21T06:08:02;32.50;;;25.38;;
26690;SDS011;14307;51.718;8.938;2022-08-21T06:10:29;33.53;;;25.45;;
26690;SDS011;14307;51.718;8.938;2022-08-21T06:12:57;36.22;;;25.92;;
26690;SDS011;14307;51.718;8.938;2022-08-21T06:15:24;30.80;;;26.73;;
26690;SDS011;14307;51.718;8.938;2022-08-21T06:17:52;32.67;;;26.90;;
26690;SDS011;14307;51.718;8.938;2022-08-21T06:20:19;32.83;;;27.75;;
26690;SDS011;14307;51.718;8.938;2022-08-21T06:22:46;31.30;;;25.60;;
26690;SDS011;14307;51.718;8.938;2022-08-21T06:25:13;38.00;;;27.98;;
26690;SDS011;14307;51.718;8.938;2022-08-21T06:27:40;34.90;;;26.85;;
26690;SDS011;14307;51.718;8.938;2022-08-21T06:30:07;35.50;;;27.20;;
26690;SDS011;14307;51.718;8.938;2022-08-21T06:32:34;31.85;;;26.33;;
26690;SDS011;14307;51.718;8.938;2022-08-21T06:35:02;33.20;;;25.90;;
26690;SDS011;14307;51.718;8.938;2022-08-21T06:37:30;34.83;;;24.10;;
26690;SDS011;14307;51.718;8.938;2022-08-21T06:39:57;30.42;;;23.42;;
26690;SDS011;14307;51.718;8.938;2022-08-21T06:42:25;24.80;;;22.30;;
26690;SDS011;14307;51.718;8.938;2022-08-21T06:44:53;27.48;;;22.85;;
26690;SDS011;14307;51.718;8.938;2022-08-21T06:47:22;23.88;;;21.40;;
26690;SDS011;14307;51.718;8.938;2022-08-21T06:49:49;24.80;;;22.48;;
26690;SDS011;14307;51.718;8.938;2022-08-21T06:52:16;25.67;;;23.27;;
26690;SDS011;14307;51.718;8.938;2022-08-21T06:54:42;25.35;;;23.05;;
26690;SDS011;14307;51.718;8.938;2022-08-21T06:57:09;25.63;;;23.33;;
26690;SDS011;14307;51.718;8.938;2022-08-21T06:59:36;26.02;;;23.63;;
26690;SDS011;14307;51.718;8.938;2022-08-21T07:02:03;25.65;;;23.35;;
26690;SDS011;14307;51.718;8.938;2022-08-21T07:04:30;26.02;;;23.63;;
26690;SDS011;14307;51.718;8.938;2022-08-21T07:06:56;27.85;;;25.23;;
26690;SDS011;14307;51.718;8.938;2022-08-21T07:09:23;26.52;;;24.08;;
26690;SDS011;14307;51.718;8.938;2022-08-21T07:11:51;27.52;;;24.67;;
26690;SDS011;14307;51.718;8.938;2022-08-21T07:14:20;28.20;;;25.75;;
26690;SDS011;14307;51.718;8.938;2022-08-21T07:16:47;27.92;;;25.27;;
26690;SDS011;14307;51.718;8.938;2022-08-21T07:19:15;27.98;;;24.98;;
26690;SDS011;14307;51.718;8.938;2022-08-21T07:21:42;29.20;;;25.85;;
26690;SDS011;14307;51.718;8.938;2022-08-21T07:24:08;28.23;;;25.80;;
26690;SDS011;14307;51.718;8.938;2022-08-21T07:26:35;27.92;;;25.75;;
26690;SDS011;14307;51.718;8.938;2022-08-21T07:29:03;26.77;;;24.80;;
26690;SDS011;14307;51.718;8.938;2022-08-21T07:31:30;27.25;;;24.92;;
26690;SDS011;14307;51.718;8.938;2022-08-21T07:33:57;27.15;;;24.80;;
26690;SDS011;14307;51.718;8.938;2022-08-21T07:36:24;27.38;;;24.52;;
26690;SDS011;14307;51.718;8.938;2022-08-21T07:38:51;25.65;;;23.45;;
26690;SDS011;14307;51.718;8.938;2022-08-21T07:41:20;26.65;;;24.63;;
26690;SDS011;14307;51.718;8.938;2022-08-21T07:43:49;25.75;;;23.73;;
26690;SDS011;14307;51.718;8.938;2022-08-21T07:46:18;25.83;;;23.63;;
26690;SDS011;14307;51.718;8.938;2022-08-21T07:48:46;26.23;;;24.02;;
26690;SDS011;14307;51.718;8.938;2022-08-21T07:51:13;23.27;;;21.52;;
26690;SDS011;14307;51.718;8.938;2022-08-21T07:53:45;23.23;;;21.33;;
26690;SDS011;14307;51.718;8.938;2022-08-21T07:56:14;22.48;;;20.33;;
26690;SDS011;14307;51.718;8.938;2022-08-21T07:58:41;22.75;;;20.77;;
26690;SDS011;14307;51.718;8.938;2022-08-21T08:01:08;22.52;;;20.75;;
26690;SDS011;14307;51.718;8.938;2022-08-21T08:03:35;23.15;;;21.20;;
26690;SDS011;14307;51.718;8.938;2022-08-21T08:06:01;22.85;;;21.00;;
26690;SDS011;14307;51.718;8.938;2022-08-21T08:08:31;22.33;;;20.75;;
26690;SDS011;14307;51.718;8.938;2022-08-21T08:10:58;23.23;;;21.25;;
26690;SDS011;14307;51.718;8.938;2022-08-21T08:13:25;22.73;;;20.92;;
26690;SDS011;14307;51.718;8.938;2022-08-21T08:15:52;23.35;;;21.55;;
26690;SDS011;14307;51.718;8.938;2022-08-21T08:18:19;23.20;;;21.35;;
26690;SDS011;14307;51.718;8.938;2022-08-21T08:20:46;22.70;;;21.00;;
26690;SDS011;14307;51.718;8.938;2022-08-21T08:23:13;22.45;;;20.50;;
26690;SDS011;14307;51.718;8.938;2022-08-21T08:25:41;22.63;;;20.98;;
26690;SDS011;14307;51.718;8.938;2022-08-21T08:28:08;20.58;;;19.25;;
26690;SDS011;14307;51.718;8.938;2022-08-21T08:33:10;21.05;;;19.38;;
26690;SDS011;14307;51.718;8.938;2022-08-21T08:35:37;21.20;;;19.70;;
26690;SDS011;14307;51.718;8.938;2022-08-21T08:38:04;22.10;;;20.13;;
26690;SDS011;14307;51.718;8.938;2022-08-21T08:43:21;21.77;;;20.08;;
26690;SDS011;14307;51.718;8.938;2022-08-21T08:45:49;22.20;;;20.48;;
26690;SDS011;14307;51.718;8.938;2022-08-21T08:48:32;21.90;;;20.25;;
26690;SDS011;14307;51.718;8.938;2022-08-21T08:51:17;23.00;;;20.92;;
26690;SDS011;14307;51.718;8.938;2022-08-21T08:53:57;22.42;;;20.73;;
26690;SDS011;14307;51.718;8.938;2022-08-21T08:56:31;22.77;;;20.88;;
26690;SDS011;14307;51.718;8.938;2022-08-21T08:59:00;22.95;;;21.38;;
26690;SDS011;14307;51.718;8.938;2022-08-21T09:01:48;23.42;;;21.75;;
26690;SDS011;14307;51.718;8.938;2022-08-21T09:04:17;22.98;;;21.30;;
26690;SDS011;14307;51.718;8.938;2022-08-21T09:17:59;23.55;;;21.63;;
26690;SDS011;14307;51.718;8.938;2022-08-21T09:25:59;21.38;;;19.75;;
26690;SDS011;14307;51.718;8.938;2022-08-21T09:28:37;24.73;;;22.30;;
26690;SDS011;14307;51.718;8.938;2022-08-21T09:31:08;23.63;;;21.73;;
26690;SDS011;14307;51.718;8.938;2022-08-21T09:33:42;23.73;;;21.77;;
26690;SDS011;14307;51.718;8.938;2022-08-21T09:36:09;25.02;;;23.13;;
26690;SDS011;14307;51.718;8.938;2022-08-21T09:38:36;22.65;;;20.88;;
26690;SDS011;14307;51.718;8.938;2022-08-21T09:41:05;24.33;;;22.52;;
26690;SDS011;14307;51.718;8.938;2022-08-21T09:43:34;24.27;;;22.42;;
26690;SDS011;14307;51.718;8.938;2022-08-21T09:46:04;24.55;;;22.50;;
26690;SDS011;14307;51.718;8.938;2022-08-21T09:48:46;24.45;;;22.50;;
26690;SDS011;14307;51.718;8.938;2022-08-21T09:51:20;23.92;;;22.33;;
26690;SDS011;14307;51.718;8.938;2022-08-21T09:53:54;25.73;;;23.40;;
26690;SDS011;14307;51.718;8.938;2022-08-21T09:57:03;24.67;;;22.40;;
26690;SDS011;14307;51.718;8.938;2022-08-21T09:59:42;25.05;;;22.98;;
26690;SDS011;14307;51.718;8.938;2022-08-21T10:02:21;25.40;;;23.27;;
26690;SDS011;14307;51.718;8.938;2022-08-21T10:05:02;25.23;;;23.30;;
26690;SDS011;14307;51.718;8.938;2022-08-21T10:07:36;23.42;;;21.60;;
26690;SDS011;14307;51.718;8.938;2022-08-21T10:10:05;24.90;;;22.88;;
26690;SDS011;14307;51.718;8.938;2022-08-21T10:20:46;25.48;;;23.08;;
26690;SDS011;14307;51.718;8.938;2022-08-21T10:26:20;24.77;;;23.20;;
26690;SDS011;14307;51.718;8.938;2022-08-21T10:28:57;25.33;;;23.48;;
26690;SDS011;14307;51.718;8.938;2022-08-21T10:31:44;24.85;;;22.95;;
26690;SDS011;14307;51.718;8.938;2022-08-21T10:39:50;24.20;;;22.45;;
26690;SDS011;14307;51.718;8.938;2022-08-21T10:43:21;24.73;;;22.65;;
26690;SDS011;14307;51.718;8.938;2022-08-21T10:45:46;26.60;;;24.50;;
26690;SDS011;14307;51.718;8.938;2022-08-21T10:50:52;25.98;;;23.80;;
26690;SDS011;14307;51.718;8.938;2022-08-21T10:56:05;25.95;;;23.85;;
26690;SDS011;14307;51.718;8.938;2022-08-21T11:04:09;26.13;;;24.30;;
26690;SDS011;14307;51.718;8.938;2022-08-21T11:06:58;25.83;;;24.05;;
26690;SDS011;14307;51.718;8.938;2022-08-21T11:09:43;27.20;;;25.23;;
26690;SDS011;14307;51.718;8.938;2022-08-21T11:12:27;26.75;;;24.95;;
26690;SDS011;14307;51.718;8.938;2022-08-21T11:15:09;26.02;;;23.98;;
26690;SDS011;14307;51.718;8.938;2022-08-21T11:18:02;27.13;;;24.85;;
26690;SDS011;14307;51.718;8.938;2022-08-21T11:20:50;26.33;;;24.42;;
26690;SDS011;14307;51.718;8.938;2022-08-21T11:23:47;27.67;;;25.35;;
26690;SDS011;14307;51.718;8.938;2022-08-21T11:26:27;26.52;;;24.35;;
26690;SDS011;14307;51.718;8.938;2022-08-21T11:29:02;26.80;;;25.05;;
26690;SDS011;14307;51.718;8.938;2022-08-21T11:34:21;28.58;;;26.45;;
26690;SDS011;14307;51.718;8.938;2022-08-21T11:42:45;26.92;;;25.23;;
26690;SDS011;14307;51.718;8.938;2022-08-21T11:45:30;26.52;;;24.80;;
26690;SDS011;14307;51.718;8.938;2022-08-21T11:50:44;26.48;;;24.58;;
26690;SDS011;14307;51.718;8.938;2022-08-21T11:53:20;27.05;;;25.25;;
26690;SDS011;14307;51.718;8.938;2022-08-21T11:56:00;26.65;;;24.88;;
26690;SDS011;14307;51.718;8.938;2022-08-21T11:58:43;26.05;;;24.17;;
26690;SDS011;14307;51.718;8.938;2022-08-21T12:01:15;23.63;;;22.02;;
26690;SDS011;14307;51.718;8.938;2022-08-21T12:03:55;25.38;;;23.58;;
26690;SDS011;14307;51.718;8.938;2022-08-21T12:06:44;26.45;;;24.85;;
26690;SDS011;14307;51.718;8.938;2022-08-21T12:09:28;27.08;;;25.20;;
26690;SDS011;14307;51.718;8.938;2022-08-21T12:14:42;27.80;;;25.90;;
26690;SDS011;14307;51.718;8.938;2022-08-21T12:17:21;27.23;;;25.63;;
26690;SDS011;14307;51.718;8.938;2022-08-21T12:19:59;25.67;;;24.08;;
26690;SDS011;14307;51.718;8.938;2022-08-21T12:22:47;26.67;;;24.67;;
26690;SDS011;14307;51.718;8.938;2022-08-21T12:25:35;27.35;;;25.75;;
26690;SDS011;14307;51.718;8.938;2022-08-21T12:28:11;27.80;;;26.08;;
26690;SDS011;14307;51.718;8.938;2022-08-21T12:30:48;28.50;;;26.58;;
26690;SDS011;14307;51.718;8.938;2022-08-21T12:33:27;27.52;;;25.75;;
26690;SDS011;14307;51.718;8.938;2022-08-21T12:38:32;28.02;;;26.20;;
26690;SDS011;14307;51.718;8.938;2022-08-21T12:41:19;28.33;;;26.67;;
26690;SDS011;14307;51.718;8.938;2022-08-21T12:43:51;25.50;;;23.77;;
26690;SDS011;14307;51.718;8.938;2022-08-21T12:46:36;25.83;;;24.25;;
26690;SDS011;14307;51.718;8.938;2022-08-21T12:49:14;26.98;;;25.27;;
26690;SDS011;14307;51.718;8.938;2022-08-21T12:52:29;27.27;;;25.67;;
26690;SDS011;14307;51.718;8.938;2022-08-21T12:54:43;26.95;;;25.08;;
26690;SDS011;14307;51.718;8.938;2022-08-21T12:57:18;28.02;;;25.73;;
26690;SDS011;14307;51.718;8.938;2022-08-21T12:59:51;28.23;;;25.98;;
26690;SDS011;14307;51.718;8.938;2022-08-21T13:03:05;26.48;;;24.77;;
26690;SDS011;14307;51.718;8.938;2022-08-21T13:05:15;27.15;;;25.27;;
26690;SDS011;14307;51.718;8.938;2022-08-21T13:07:48;24.20;;;22.70;;
26690;SDS011;14307;51.718;8.938;2022-08-21T13:10:18;26.00;;;24.30;;
26690;SDS011;14307;51.718;8.938;2022-08-21T13:12:50;27.48;;;25.67;;
26690;SDS011;14307;51.718;8.938;2022-08-21T13:15:25;26.50;;;24.85;;
26690;SDS011;14307;51.718;8.938;2022-08-21T13:17:59;25.70;;;24.00;;
26690;SDS011;14307;51.718;8.938;2022-08-21T13:20:30;27.08;;;25.50;;
26690;SDS011;14307;51.718;8.938;2022-08-21T13:23:01;27.58;;;25.58;;
26690;SDS011;14307;51.718;8.938;2022-08-21T13:25:30;26.40;;;24.75;;
26690;SDS011;14307;51.718;8.938;2022-08-21T13:28:09;27.55;;;25.60;;
26690;SDS011;14307;51.718;8.938;2022-08-21T13:30:59;25.38;;;23.85;;
26690;SDS011;14307;51.718;8.938;2022-08-21T13:33:27;26.80;;;25.00;;
26690;SDS011;14307;51.718;8.938;2022-08-21T13:38:30;26.67;;;24.88;;
26690;SDS011;14307;51.718;8.938;2022-08-21T13:41:05;26.08;;;24.30;;
26690;SDS011;14307;51.718;8.938;2022-08-21T13:43:59;26.27;;;24.55;;
26690;SDS011;14307;51.718;8.938;2022-08-21T13:46:29;26.95;;;25.17;;
26690;SDS011;14307;51.718;8.938;2022-08-21T13:49:02;27.10;;;25.40;;
26690;SDS011;14307;51.718;8.938;2022-08-21T13:51:30;27.08;;;25.27;;
26690;SDS011;14307;51.718;8.938;2022-08-21T13:53:58;25.50;;;23.73;;
26690;SDS011;14307;51.718;8.938;2022-08-21T13:58:54;25.77;;;23.98;;
26690;SDS011;14307;51.718;8.938;2022-08-21T14:03:49;24.90;;;23.50;;
26690;SDS011;14307;51.718;8.938;2022-08-21T14:06:19;25.23;;;23.30;;
26690;SDS011;14307;51.718;8.938;2022-08-21T14:08:53;24.45;;;22.77;;
26690;SDS011;14307;51.718;8.938;2022-08-21T14:11:26;25.45;;;23.88;;
26690;SDS011;14307;51.718;8.938;2022-08-21T14:14:00;24.95;;;23.35;;
26690;SDS011;14307;51.718;8.938;2022-08-21T14:16:46;25.77;;;24.17;;
26690;SDS011;14307;51.718;8.938;2022-08-21T14:19:21;24.73;;;23.33;;
26690;SDS011;14307;51.718;8.938;2022-08-21T14:21:50;25.67;;;24.08;;
26690;SDS011;14307;51.718;8.938;2022-08-21T14:27:04;25.42;;;23.88;;
26690;SDS011;14307;51.718;8.938;2022-08-21T14:29:36;25.45;;;23.75;;
26690;SDS011;14307;51.718;8.938;2022-08-21T14:34:50;24.80;;;23.10;;
26690;SDS011;14307;51.718;8.938;2022-08-21T14:37:19;24.50;;;23.10;;
26690;SDS011;14307;51.718;8.938;2022-08-21T14:39:47;24.73;;;23.27;;
26690;SDS011;14307;51.718;8.938;2022-08-21T14:42:13;25.33;;;23.80;;
26690;SDS011;14307;51.718;8.938;2022-08-21T14:44:40;25.13;;;23.45;;
26690;SDS011;14307;51.718;8.938;2022-08-21T14:47:07;25.75;;;24.15;;
26690;SDS011;14307;51.718;8.938;2022-08-21T14:49:35;26.65;;;25.05;;
26690;SDS011;14307;51.718;8.938;2022-08-21T14:52:02;25.30;;;23.75;;
26690;SDS011;14307;51.718;8.938;2022-08-21T14:54:30;25.48;;;23.98;;
26690;SDS011;14307;51.718;8.938;2022-08-21T14:56:59;24.52;;;23.02;;
26690;SDS011;14307;51.718;8.938;2022-08-21T14:59:31;25.05;;;23.17;;
26690;SDS011;14307;51.718;8.938;2022-08-21T15:01:59;24.83;;;23.23;;
26690;SDS011;14307;51.718;8.938;2022-08-21T15:04:26;25.73;;;23.98;;
26690;SDS011;14307;51.718;8.938;2022-08-21T15:06:53;24.60;;;22.92;;
26690;SDS011;14307;51.718;8.938;2022-08-21T15:09:20;25.02;;;23.35;;
26690;SDS011;14307;51.718;8.938;2022-08-21T15:11:47;25.77;;;23.83;;
26690;SDS011;14307;51.718;8.938;2022-08-21T15:14:21;25.02;;;23.45;;
26690;SDS011;14307;51.718;8.938;2022-08-21T15:16:53;25.15;;;23.42;;
26690;SDS011;14307;51.718;8.938;2022-08-21T15:19:20;25.05;;;23.25;;
26690;SDS011;14307;51.718;8.938;2022-08-21T15:21:47;25.67;;;24.08;;
26690;SDS011;14307;51.718;8.938;2022-08-21T15:24:14;24.80;;;23.42;;
26690;SDS011;14307;51.718;8.938;2022-08-21T15:26:43;25.00;;;23.20;;
26690;SDS011;14307;51.718;8.938;2022-08-21T15:29:11;24.23;;;22.73;;
26690;SDS011;14307;51.718;8.938;2022-08-21T15:31:40;26.20;;;24.52;;
26690;SDS011;14307;51.718;8.938;2022-08-21T15:34:16;24.35;;;22.92;;
26690;SDS011;14307;51.718;8.938;2022-08-21T15:36:43;26.67;;;25.08;;
26690;SDS011;14307;51.718;8.938;2022-08-21T15:39:10;25.30;;;23.83;;
26690;SDS011;14307;51.718;8.938;2022-08-21T15:41:36;25.75;;;24.05;;
26690;SDS011;14307;51.718;8.938;2022-08-21T15:44:03;24.65;;;23.08;;
26690;SDS011;14307;51.718;8.938;2022-08-21T15:46:30;25.60;;;23.92;;
26690;SDS011;14307;51.718;8.938;2022-08-21T15:48:57;25.58;;;23.58;;
26690;SDS011;14307;51.718;8.938;2022-08-21T15:51:25;25.92;;;24.30;;
26690;SDS011;14307;51.718;8.938;2022-08-21T15:53:51;26.00;;;24.30;;
26690;SDS011;14307;51.718;8.938;2022-08-21T15:56:22;25.98;;;24.17;;
26690;SDS011;14307;51.718;8.938;2022-08-21T15:58:52;26.60;;;24.70;;
26690;SDS011;14307;51.718;8.938;2022-08-21T16:01:24;25.95;;;23.98;;
26690;SDS011;14307;51.718;8.938;2022-08-21T16:03:52;27.25;;;25.58;;
26690;SDS011;14307;51.718;8.938;2022-08-21T16:06:20;26.55;;;24.75;;